Terminal Aerodrome Forecast
Issued by NWS Louisville, KY

Home | Current Version | Previous Version | Text Only | Print | Product List | Glossary On
Versions: 1 2 3 4 5 6 7 8 9 10 11 12 13 14 15
000
FTUS43 KLMK 041000 AAB
TAFSDF
TAF AMD
KSDF 041019Z 0410/0512 VRB03KT 6SM BR BKN035
      TEMPO 0410/0413 4SM BR BKN025
     FM041400 03004KT P6SM BKN040=

USA.gov is the U.S. government's official web portal to all federal, state and local government web resources and services.